Main page
METAR-TAF:

METAR-TAF

Airports :

Abdelhafid Boussouf Bou Chekif Airport

Tiaret, Algeria

latitude: 35-15N, longitude: 001-26E, elevation: 1127 m

Current weather observation

The report was made 1 hour and 6 minutes ago, at 08:00 UTC
Calm wind
Temperature 23°C
Humidity 47%
Pressure 1021 hPa
Visibility 10 km or more
no clouds below 1500 m and no cumulonimbus

METAR: DAOB 150800Z 00000KT CAVOK 23/11 Q1021

Time: 10:06 (09:06 UTC)

Forecast

The report was made 4 hours and 6 minutes ago, at 05:00 UTC
Forecast valid from 15 at 06 UTC to 16 at 06 UTC
Wind 2 kt from variable directions
Visibility 10 km or more
no clouds below 1500 m and no cumulonimbus
Becoming
from 15 at 09 UTC to 15 at 12 UTC
Wind 10 kt from the Northwest
Becoming
from 15 at 18 UTC to 15 at 21 UTC
Wind 2 kt from variable directions

TAF: DAOB 150500Z 1506/1606 VRB02KT CAVOK BECMG 1509/1512 32010KT BECMG 1518/1521 VRB02KT

Weather observations and forecasts of more than 4000 airports (METAR and TAF reports).

The available stations are represented by yellow and red dots on the map.

Hover mouse over dot to see the name of the station.

Then click to see weather observations and forecasts.

To change the map : click on the green buttons with a black cross to zoom in, on the green button with a dash to zoom out, or on the green arrows for adjacent maps.


METAR-TAF: